Archival Weather

Chicago O'Hare International

Chicago, Illinois (KORD)

Report from: Wednesday, August 23, 2023 9:51 AM CDT
Current time: Monday, July 22, 2024 6:33 AM CDT

Current weather – Weather history – Daily summaries
Weather forecast

Temperature31.1°C (88.0°F)
Heat index39.4°C (103.0°F)
Dew point26.1°C (79.0°F)
Winds 13 kts (6.7 m/s, 15 mph) West-Southwest (240°)
Wind gusts 22 kts (11.3 m/s, 25.3 mph)
Visibility8 mi. (12.9 km)
Clouds Scattered clouds 1,800 ft. (549 m)
Scattered clouds 25,000 ft. (7,620 m)
Altimeter29.98 in.Hg (1015 mB)
Relative humidity75 %
Density altitude2,242 ft. (683 m)
Sea-level pressure101.5 kPa (1015 mB, 29.96 in.Hg)
Remarks Automated weather observing station with precipitation discriminator
Pressure falling more quickly
Flight conditions Visual Meteorological Conditions
Raw dataKORD 231451Z 24013G22KT 8SM SCT018 SCT250 31/26 A2998 RMK AO2 SLP147 T03110261 58009
An error has occurred. This application may no longer respond until reloaded. Reload 🗙